Welcome!

Visit our other weather sites:

Template documentation
and downloads

And another site



There are no active watches, warnings or advisories

Nearby METAR Reports

   
KAVP - Albrightsville, PA
Updated: Apr 19 2019 9:10 pm
Light Rain, Mist, Overcast  
Light Rain, Mist, Overcast  
   Wind: varies 5.8 mph<br />Gust to 5.8 mph
Wind: varies 5.8 mph
Gust to 5.8 mph
Temperature: 68°F
Dew Point: 64.4°F
Humidity: 88%
Barometer: 29.59 inHg
Clouds: Overcast
Visibility: 5 mi
Cloud details: Partly Cloudy 732 m,
Mostly Cloudy 1097 m,
Overcast 1433 m
KAVP 200210Z VRB05G15KT 5SM -RA BR SCT024 BKN036 OVC047 20/18 A2959 RMK AO2 P0003 T02000178
KIWA - Apache Junction, AZ
Updated: Apr 19 2019 8:47 pm
Partly Cloudy  
Partly Cloudy  
   Wind: varies 4.6 mph
Wind: varies 4.6 mph
Temperature: 91.4°F
Dew Point: 24.8°F
Humidity: 9%
Barometer: 29.77 inHg
Clouds: Partly Cloudy
Visibility: 45 mi
Cloud details: Partly Cloudy 5486 m
KIWA 200147Z VRB04KT 45SM SCT180 33/M04 A2977
KPKB - Blue Rock, OH
Updated: Apr 19 2019 8:53 pm
Overcast  
Overcast  
   Wind: NNW 8.1 mph
Wind: NNW 8.1 mph
Temperature: 59°F
Dew Point: 57.2°F
Humidity: 94%
Barometer: 29.5 inHg
Clouds: Overcast
Visibility: 10 mi
Cloud details: Overcast 549 m
KPKB 200153Z 34007KT 10SM OVC018 15/14 A2950 RMK AO2 SLP984 T01500139
KHVN - Branford, CT
Updated: Apr 19 2019 8:53 pm
Mist, Overcast  
Mist, Overcast  
   Wind: South 9.2 mph
Wind: South 9.2 mph
Temperature: 59°F
Dew Point: 57.2°F
Humidity: 94%
Barometer: 29.8 inHg
Clouds: Overcast
Visibility: 6 mi
Cloud details: Mostly Cloudy 366 m,
Overcast 853 m
KHVN 200153Z 18008KT 6SM BR BKN012 OVC028 15/14 A2980 RMK AO2 SLP092 T01500139
KPHX - Carefree, AZ
Updated: Apr 19 2019 8:51 pm
Partly Cloudy  
Partly Cloudy  
   Wind: East 5.8 mph
Wind: East 5.8 mph
Temperature: 95°F
Dew Point: 19.4°F
Humidity: 6%
Barometer: 29.72 inHg
Clouds: Partly Cloudy
Visibility: 10 mi
Cloud details: Few Clouds 3962 m,
Partly Cloudy 5486 m,
Partly Cloudy 8230 m
KPHX 200151Z 08005KT 10SM FEW130 SCT180 SCT270 35/M07 A2972 RMK AO2 SLP046 T03501067
 

Script developed by  Saratoga-weather.org Adapted for the template by  Weerstation Leuven